Aeroporto :
LOGIN :

Iscrizione | Disclaimer

   EN    FR    IT 

 










Sommario :    VFR   VFR Marginale   IFR   IFR Intensivo   IFR Molto Intensivo
Visibilità : 
Base nubi : 
>= 8 km
>= 3000ft
5 / 8 km
1000 / 3000 ft
1500m / 5 km
500 / 1000 ft
800 / 1500m
200 / 500 ft
< 800m
< 200 ft
Simboli :   Temporali  Nebbia  Neve Forte  Precipitazioni Forti  Vento > 20 kt
SIGMETs :   Varie  Temporali  Ghiacco  Turbolenza  Onda orograficha  Ceneri Vulcaniche






- Altitudine del aeroporto : 265 ft


ETSH - Holzdorf AB

ULTIMO METAR :
  • 211220Z 19003KT 9999 FEW160 BKN200 16/13 Q1018 BLU+BLU

METARs OBSOLETI :
  • 211120Z 22004KT 9999 FEW160 BKN220 16/12 Q1018 BLU+BLU
  • 211020Z 27002KT 9999 FEW140 BKN180 15/12 Q1018 BLU BLU
  • 210920Z 25003KT 9999 FEW160 BKN210 14/11 Q1017 BLU+BLU+

TAF TAF ETSH
Valido dal 21 a 11 ore il 21 a 20 ore UTC


211025Z 2111/2120 23005KT 9999 NSW SCT100 BKN150



MetMap, La meteo Aeronautica in un colpo d'occhio ! - Copyright ORBIFLY Dicembre 2007 - Disclaimer

ORBIFLY MET'MAP TEAM :

Programmazione e sviluppo : Alexandra Zaïnal
Concezione e sviluppo : Baudouin d'Aumeries
Co-Programmazione e sviluppo : Marc-Olivier Méhu
Supporto tecnico e logistico : Manuel Goepfert
Aiuto per la traduzione : Arnaldo La Scala

Contatto : metmap@orbifly.com




FONTI E CREDITI :

   NOAA